Time;durP1;ratioP1;P1;durP2;ratioP2;P2;SDS_P1;SDS_P2;PMS_P1;PMS_P2;Temp;Humidity;BMP_temperature;BMP_pressure;BME280_temperature;BME280_humidity;BME280_pressure;Samples;Min_cycle;Max_cycle;Signal;HPM_P1;HPM_P2
2022/12/19 00:01:00;;;;;;;14.60;9.27;;;-1.70;99.90;;;;;;5065879;28;20209;-50
2022/12/19 00:03:27;;;;;;;16.73;9.53;;;-1.70;99.90;;;;;;5051102;28;20248;-44
2022/12/19 00:05:54;;;;;;;16.37;10.00;;;-1.70;99.90;;;;;;5048975;28;20218;-44
2022/12/19 00:08:22;;;;;;;18.83;10.67;;;-1.70;99.90;;;;;;5062498;28;20210;-47
2022/12/19 00:10:55;;;;;;;20.00;9.30;;;-1.70;99.90;;;;;;5065631;28;20218;-45
2022/12/19 00:13:22;;;;;;;19.17;11.23;;;-1.70;99.90;;;;;;5052457;28;20218;-47
2022/12/19 00:16:13;;;;;;;19.20;10.37;;;-1.70;99.90;;;;;;5063408;28;20329;-45
2022/12/19 00:18:41;;;;;;;21.90;9.77;;;-1.70;99.90;;;;;;5046965;28;20201;-46
2022/12/19 00:21:10;;;;;;;19.33;10.60;;;-1.80;99.90;;;;;;5046258;28;20582;-48
2022/12/19 00:23:38;;;;;;;21.10;10.13;;;-1.70;99.90;;;;;;5062593;28;20207;-48
2022/12/19 00:26:13;;;;;;;16.73;9.80;;;-1.70;99.90;;;;;;5065579;28;20209;-48
2022/12/19 00:28:42;;;;;;;21.73;11.13;;;-1.70;99.90;;;;;;5056548;28;20844;-46
2022/12/19 00:31:11;;;;;;;18.47;10.57;;;-1.80;99.90;;;;;;5064504;28;20253;-48
2022/12/19 00:33:38;;;;;;;21.40;11.00;;;-1.80;99.90;;;;;;5052385;28;20221;-46
2022/12/19 00:36:08;;;;;;;21.27;9.77;;;-1.80;99.90;;;;;;5049759;28;20222;-49
2022/12/19 00:38:35;;;;;;;20.00;11.20;;;-1.80;99.90;;;;;;5061762;28;20198;-48
2022/12/19 00:41:10;;;;;;;19.27;10.50;;;-1.80;99.90;;;;;;5059833;28;20249;-45
2022/12/19 00:43:38;;;;;;;19.30;11.17;;;-1.80;99.90;;;;;;5049651;28;20917;-45
2022/12/19 00:46:07;;;;;;;17.90;10.07;;;-1.80;99.90;;;;;;5057981;28;20198;-46
2022/12/19 00:48:35;;;;;;;18.87;10.17;;;-1.80;99.90;;;;;;5052331;28;20435;-50
2022/12/19 00:51:03;;;;;;;21.13;10.37;;;-1.80;99.90;;;;;;5063090;28;20215;-47
2022/12/19 00:53:30;;;;;;;18.93;10.67;;;-1.70;99.90;;;;;;5044781;28;20943;-44
2022/12/19 00:56:00;;;;;;;19.73;9.87;;;-1.80;99.90;;;;;;5063519;28;20256;-50
2022/12/19 00:58:29;;;;;;;20.07;10.10;;;-1.70;99.90;;;;;;5053850;28;23404;-49
2022/12/19 01:00:57;;;;;;;15.97;9.43;;;-1.70;99.90;;;;;;5064608;28;20563;-45
2022/12/19 01:03:24;;;;;;;17.70;9.70;;;-1.70;99.90;;;;;;5060459;28;20210;-48
2022/12/19 01:05:50;;;;;;;16.93;10.10;;;-1.70;99.90;;;;;;5054827;28;20203;-46
2022/12/19 01:08:17;;;;;;;17.47;10.27;;;-1.70;99.90;;;;;;5042169;28;20207;-47
2022/12/19 01:10:45;;;;;;;18.30;10.00;;;-1.70;99.90;;;;;;5059154;28;20317;-47
2022/12/19 01:13:11;;;;;;;18.53;10.10;;;-1.70;99.90;;;;;;5060322;28;20234;-47
2022/12/19 01:15:40;;;;;;;18.50;9.97;;;-1.70;99.90;;;;;;5057640;28;20888;-45
2022/12/19 01:18:09;;;;;;;19.23;10.40;;;-1.60;99.90;;;;;;5056875;28;20235;-51
2022/12/19 01:20:38;;;;;;;18.97;9.47;;;-1.70;99.90;;;;;;5049781;28;20204;-48
2022/12/19 01:23:06;;;;;;;17.23;9.47;;;-1.60;99.90;;;;;;5063078;28;20637;-50
2022/12/19 01:25:33;;;;;;;18.67;10.00;;;-1.60;99.90;;;;;;5048729;28;20195;-48
2022/12/19 01:28:00;;;;;;;20.03;9.60;;;-1.60;99.90;;;;;;5062178;28;20590;-49
2022/12/19 01:30:28;;;;;;;20.40;11.00;;;-1.60;99.90;;;;;;5051561;28;20868;-49
2022/12/19 01:32:57;;;;;;;18.83;10.17;;;-1.60;99.90;;;;;;5063542;28;20685;-45
2022/12/19 01:35:24;;;;;;;16.67;10.50;;;-1.60;99.90;;;;;;5060209;28;20213;-47
2022/12/19 01:37:52;;;;;;;18.63;10.47;;;-1.60;99.90;;;;;;5054066;28;20203;-44
2022/12/19 01:40:20;;;;;;;18.20;9.97;;;-1.60;99.90;;;;;;5046819;28;20211;-47
2022/12/19 01:42:48;;;;;;;15.43;9.13;;;-1.60;99.90;;;;;;5061228;28;20234;-47
2022/12/19 01:45:31;;;;;;;15.33;9.20;;;-1.60;99.90;;;;;;5054387;28;20203;-49
2022/12/19 01:48:07;;;;;;;18.03;9.83;;;-1.60;99.90;;;;;;5058888;28;20929;-48
2022/12/19 01:50:38;;;;;;;21.80;11.30;;;-1.60;99.90;;;;;;5057675;28;20199;-44
2022/12/19 01:53:07;;;;;;;18.03;9.03;;;-1.60;99.90;;;;;;5048032;28;20243;-45
2022/12/19 01:55:34;;;;;;;18.13;9.70;;;-1.50;99.90;;;;;;5044004;28;20202;-52
2022/12/19 01:58:02;;;;;;;19.00;9.90;;;-1.50;99.90;;;;;;5061648;28;20239;-48
2022/12/19 02:00:29;;;;;;;17.03;8.93;;;-1.50;99.90;;;;;;5052155;28;20210;-47
2022/12/19 02:03:00;;;;;;;18.20;10.13;;;-1.50;99.90;;;;;;5062520;28;20223;-49
2022/12/19 02:05:29;;;;;;;20.00;10.63;;;-1.50;99.90;;;;;;5052717;28;20202;-46
2022/12/19 02:07:56;;;;;;;19.20;10.43;;;-1.40;99.90;;;;;;5062057;28;20677;-46
2022/12/19 02:10:23;;;;;;;19.90;10.67;;;-1.40;99.90;;;;;;5049846;28;20678;-45
2022/12/19 02:12:50;;;;;;;16.00;9.53;;;-1.40;99.90;;;;;;5048708;28;20238;-48
2022/12/19 02:15:19;;;;;;;19.20;10.70;;;-1.40;99.90;;;;;;5045626;28;20191;-45
2022/12/19 02:18:03;;;;;;;20.23;10.77;;;-1.30;99.90;;;;;;5061077;28;20232;-44
2022/12/19 02:21:04;;;;;;;18.87;10.30;;;-1.30;99.90;;;;;;5058027;28;20200;-47
2022/12/19 02:24:11;;;;;;;14.43;8.90;;;-1.30;99.90;;;;;;5049308;28;20567;-44
2022/12/19 02:26:51;;;;;;;17.73;9.47;;;-1.30;99.90;;;;;;5036528;28;20230;-47
2022/12/19 02:29:51;;;;;;;18.27;9.43;;;-1.30;99.90;;;;;;5075348;28;20205;-46
2022/12/19 02:32:23;;;;;;;16.50;9.43;;;-1.30;99.90;;;;;;5051932;28;20313;-44
2022/12/19 02:34:57;;;;;;;18.87;9.63;;;-1.20;99.90;;;;;;5061798;28;20733;-46
2022/12/19 02:37:28;;;;;;;15.53;9.37;;;-1.20;99.90;;;;;;5051886;28;20214;-45
2022/12/19 02:40:01;;;;;;;16.37;9.60;;;-1.20;99.90;;;;;;5052352;28;20211;-44
2022/12/19 02:42:32;;;;;;;18.73;9.87;;;-1.20;99.90;;;;;;5042976;28;23306;-45
2022/12/19 02:45:05;;;;;;;18.10;9.97;;;-1.20;99.90;;;;;;5059563;28;20202;-47
2022/12/19 02:47:34;;;;;;;16.70;9.93;;;-1.20;99.90;;;;;;5051179;28;22812;-47
2022/12/19 02:50:03;;;;;;;17.03;9.07;;;-1.10;99.90;;;;;;5062031;28;20222;-46
2022/12/19 02:52:48;;;;;;;18.33;10.00;;;-1.10;99.90;;;;;;5057094;28;20231;-45
2022/12/19 02:55:20;;;;;;;16.50;9.63;;;-1.10;99.90;;;;;;5050040;28;20344;-48
2022/12/19 02:58:03;;;;;;;13.43;8.40;;;-1.10;99.90;;;;;;5061130;28;20207;-46
2022/12/19 03:00:37;;;;;;;18.20;10.03;;;-1.10;99.90;;;;;;5043225;28;20785;-46
2022/12/19 03:03:11;;;;;;;16.17;9.57;;;-1.10;99.90;;;;;;5054012;28;20243;-49
2022/12/19 03:05:44;;;;;;;18.17;9.00;;;-1.10;99.90;;;;;;5058911;28;20210;-47
2022/12/19 03:08:21;;;;;;;15.53;9.70;;;-1.00;99.90;;;;;;5062819;28;20256;-47
2022/12/19 03:10:55;;;;;;;17.47;10.00;;;-1.00;99.90;;;;;;5053361;28;20204;-45
2022/12/19 03:13:29;;;;;;;18.83;10.47;;;-1.00;99.90;;;;;;5042781;28;20259;-44
2022/12/19 03:15:57;;;;;;;15.50;9.13;;;-1.00;99.90;;;;;;5058569;28;20674;-45
2022/12/19 03:18:26;;;;;;;18.83;10.20;;;-1.00;99.90;;;;;;5056021;28;20203;-49
2022/12/19 03:21:06;;;;;;;16.40;10.03;;;-1.00;99.90;;;;;;5061490;28;20199;-45
2022/12/19 03:23:33;;;;;;;15.60;9.57;;;-0.90;99.90;;;;;;5062386;28;20226;-44
2022/12/19 03:26:03;;;;;;;17.13;10.37;;;-1.00;99.90;;;;;;5066279;28;20211;-44
2022/12/19 03:28:36;;;;;;;17.30;10.23;;;-0.90;99.90;;;;;;5052436;28;20216;-46
2022/12/19 03:31:04;;;;;;;15.70;8.93;;;-0.90;99.90;;;;;;5052061;28;20913;-49
2022/12/19 03:33:34;;;;;;;17.17;10.03;;;-1.00;99.90;;;;;;5060754;28;20245;-43
2022/12/19 03:36:07;;;;;;;16.60;10.33;;;-1.00;99.90;;;;;;5059198;28;20204;-49
2022/12/19 03:38:35;;;;;;;18.87;10.50;;;-0.90;99.90;;;;;;5062959;28;20195;-47
2022/12/19 03:41:05;;;;;;;18.30;10.10;;;-0.90;99.90;;;;;;5066048;28;20199;-47
2022/12/19 03:43:32;;;;;;;16.67;9.77;;;-0.90;99.90;;;;;;5051679;28;20289;-44
2022/12/19 03:46:05;;;;;;;16.23;10.37;;;-0.90;99.90;;;;;;5051580;28;20236;-48
2022/12/19 03:48:41;;;;;;;14.63;9.23;;;-0.90;99.90;;;;;;5061776;28;20219;-44
2022/12/19 03:51:17;;;;;;;20.43;10.27;;;-0.80;99.90;;;;;;5058625;28;20204;-45
2022/12/19 03:53:53;;;;;;;16.47;9.77;;;-0.80;99.90;;;;;;5064134;28;20219;-45
2022/12/19 03:56:29;;;;;;;19.40;10.07;;;-0.80;99.90;;;;;;5056681;28;20201;-45
2022/12/19 03:59:00;;;;;;;15.90;10.10;;;-0.80;99.90;;;;;;5063277;28;20203;-44
2022/12/19 04:01:29;;;;;;;17.63;9.80;;;-0.80;99.90;;;;;;5047115;28;20209;-49
2022/12/19 04:03:58;;;;;;;17.00;9.73;;;-0.80;99.90;;;;;;5065087;28;20217;-47
2022/12/19 04:06:28;;;;;;;16.60;9.73;;;-0.80;99.90;;;;;;5054823;28;20843;-49
2022/12/19 04:08:56;;;;;;;21.00;10.90;;;-0.80;99.90;;;;;;5065468;28;20198;-47
2022/12/19 04:11:27;;;;;;;20.93;10.87;;;-0.80;99.90;;;;;;5061318;28;20218;-44
2022/12/19 04:14:00;;;;;;;20.30;11.10;;;-0.80;99.90;;;;;;5054695;28;20227;-48
2022/12/19 04:16:37;;;;;;;17.03;10.60;;;-0.80;99.90;;;;;;5046140;28;20869;-49
2022/12/19 04:19:15;;;;;;;16.43;10.00;;;-0.70;99.90;;;;;;5064710;28;20299;-44
2022/12/19 04:21:49;;;;;;;20.77;11.13;;;-0.70;99.90;;;;;;5063198;28;20940;-47
2022/12/19 04:24:23;;;;;;;18.53;10.93;;;-0.70;99.90;;;;;;5056107;28;20203;-48
2022/12/19 04:26:52;;;;;;;19.83;10.40;;;-0.70;99.90;;;;;;5065264;28;20209;-48
2022/12/19 04:29:19;;;;;;;14.30;9.13;;;-0.70;99.90;;;;;;5052508;28;20291;-45
2022/12/19 04:31:47;;;;;;;19.40;10.00;;;-0.70;99.90;;;;;;5049196;28;20221;-49
2022/12/19 04:34:19;;;;;;;19.77;10.70;;;-0.70;99.90;;;;;;5062586;28;20221;-46
2022/12/19 04:36:46;;;;;;;14.47;9.63;;;-0.70;99.90;;;;;;5054819;28;20204;-46
2022/12/19 04:39:13;;;;;;;19.30;9.33;;;-0.70;99.90;;;;;;5054988;28;20203;-46
2022/12/19 04:41:40;;;;;;;14.73;9.37;;;-0.70;99.90;;;;;;5064188;28;20219;-45
2022/12/19 04:44:07;;;;;;;18.47;9.63;;;-0.70;99.90;;;;;;5050514;28;20202;-45
2022/12/19 04:46:34;;;;;;;17.67;9.70;;;-0.60;99.90;;;;;;5064273;28;20229;-44
2022/12/19 04:49:01;;;;;;;18.07;10.10;;;-0.60;99.90;;;;;;5042193;28;20206;-47
2022/12/19 04:51:29;;;;;;;16.90;10.70;;;-0.60;99.90;;;;;;5064546;28;20204;-49
2022/12/19 04:53:57;;;;;;;15.90;9.70;;;-0.60;99.90;;;;;;5053889;28;20227;-45
2022/12/19 04:56:23;;;;;;;21.17;10.40;;;-0.60;99.90;;;;;;5063643;28;20678;-45
2022/12/19 04:58:56;;;;;;;18.07;10.97;;;-0.50;99.90;;;;;;5062125;28;20206;-48
2022/12/19 05:01:23;;;;;;;18.73;9.63;;;-0.50;99.90;;;;;;5040902;28;20600;-45
2022/12/19 05:03:52;;;;;;;16.00;9.67;;;-0.50;99.90;;;;;;5046715;28;20282;-46
2022/12/19 05:06:20;;;;;;;16.83;9.57;;;-0.50;99.90;;;;;;5051179;28;20285;-45
2022/12/19 05:08:48;;;;;;;19.30;9.90;;;-0.50;99.90;;;;;;5053629;28;20200;-48
2022/12/19 05:11:17;;;;;;;17.90;10.50;;;-0.50;99.90;;;;;;5057396;28;20352;-52
2022/12/19 05:13:43;;;;;;;17.90;10.97;;;-0.50;99.90;;;;;;5054493;28;20213;-46
2022/12/19 05:16:14;;;;;;;17.53;10.07;;;-0.40;99.90;;;;;;5049718;28;20215;-48
2022/12/19 05:18:41;;;;;;;16.97;10.03;;;-0.40;99.90;;;;;;5047841;28;20204;-46
2022/12/19 05:21:08;;;;;;;15.63;9.90;;;-0.40;99.90;;;;;;5059956;28;20801;-47
2022/12/19 05:23:35;;;;;;;15.00;9.23;;;-0.30;99.90;;;;;;5057158;28;20224;-50
2022/12/19 05:26:05;;;;;;;18.43;9.20;;;-0.30;99.90;;;;;;5052487;28;20203;-47
2022/12/19 05:28:33;;;;;;;17.00;9.53;;;-0.30;99.90;;;;;;5061929;28;20219;-44
2022/12/19 05:31:06;;;;;;;17.83;11.00;;;-0.30;99.90;;;;;;5048619;28;20204;-46
2022/12/19 05:33:34;;;;;;;16.23;9.33;;;-0.30;99.90;;;;;;5062363;28;20708;-45
2022/12/19 05:36:01;;;;;;;17.00;9.80;;;-0.30;99.90;;;;;;5045962;28;20198;-45
2022/12/19 05:38:28;;;;;;;18.17;9.73;;;-0.30;99.90;;;;;;5056657;28;20236;-45
2022/12/19 05:40:55;;;;;;;16.50;10.40;;;-0.20;99.90;;;;;;5049451;28;20212;-49
2022/12/19 05:43:24;;;;;;;19.10;10.37;;;-0.20;99.90;;;;;;5061354;28;20219;-44
2022/12/19 05:45:51;;;;;;;18.83;10.00;;;-0.20;99.90;;;;;;5041116;28;20679;-45
2022/12/19 05:48:18;;;;;;;14.70;9.23;;;-0.20;99.90;;;;;;5056350;28;20205;-49
2022/12/19 05:50:48;;;;;;;19.87;10.53;;;-0.10;99.90;;;;;;5039043;28;20215;-45
2022/12/19 05:53:15;;;;;;;18.20;11.07;;;-0.10;99.90;;;;;;5051083;28;20248;-44
2022/12/19 05:55:42;;;;;;;15.40;10.77;;;-0.10;99.90;;;;;;5051196;28;20212;-47
2022/12/19 05:58:09;;;;;;;16.03;10.20;;;0.00;99.90;;;;;;5047395;28;20192;-44
2022/12/19 06:00:37;;;;;;;17.03;10.07;;;0.00;99.90;;;;;;5063748;28;20204;-44
2022/12/19 06:03:04;;;;;;;17.33;10.03;;;0.00;99.90;;;;;;5047271;28;20220;-47
2022/12/19 06:05:31;;;;;;;17.93;10.90;;;0.00;99.90;;;;;;5046817;28;20560;-44
2022/12/19 06:07:57;;;;;;;17.53;10.33;;;0.10;99.90;;;;;;5046429;28;20221;-47
2022/12/19 06:10:24;;;;;;;22.57;10.57;;;0.10;99.90;;;;;;5049480;28;20204;-44
2022/12/19 06:12:53;;;;;;;15.00;9.93;;;0.10;99.90;;;;;;5046380;28;20217;-44
2022/12/19 06:15:19;;;;;;;20.30;10.30;;;0.10;99.90;;;;;;5053398;28;20205;-44
2022/12/19 06:17:48;;;;;;;15.43;9.07;;;0.20;99.90;;;;;;5047063;28;20208;-44
2022/12/19 06:20:15;;;;;;;17.30;9.53;;;0.20;99.90;;;;;;5036779;28;20278;-45
2022/12/19 06:22:42;;;;;;;21.43;10.20;;;0.30;99.90;;;;;;5045367;28;20226;-45
2022/12/19 06:25:17;;;;;;;18.53;10.03;;;0.30;99.90;;;;;;5049318;28;20645;-45
2022/12/19 06:27:44;;;;;;;17.83;10.03;;;0.30;99.90;;;;;;5060741;28;20247;-44
2022/12/19 06:30:11;;;;;;;15.80;9.53;;;0.30;99.90;;;;;;5050333;28;20196;-46
2022/12/19 06:32:38;;;;;;;16.50;11.00;;;0.40;99.90;;;;;;5047252;28;20248;-45
2022/12/19 06:35:08;;;;;;;17.23;9.70;;;0.40;99.90;;;;;;5057164;28;21050;-45
2022/12/19 06:37:35;;;;;;;19.00;10.23;;;0.40;99.90;;;;;;5036202;28;20220;-49
2022/12/19 06:40:01;;;;;;;19.03;10.07;;;0.50;99.90;;;;;;5058626;28;20216;-46
2022/12/19 06:42:27;;;;;;;17.47;10.10;;;0.50;99.90;;;;;;5048257;28;20208;-47
2022/12/19 06:44:55;;;;;;;14.77;9.83;;;0.50;99.90;;;;;;5058653;28;20198;-49
2022/12/19 06:47:23;;;;;;;17.83;10.33;;;0.50;99.90;;;;;;5053000;28;20937;-48
2022/12/19 06:49:50;;;;;;;19.60;10.70;;;0.50;99.90;;;;;;5048982;28;20727;-44
2022/12/19 06:52:18;;;;;;;19.00;9.50;;;0.60;99.90;;;;;;5039387;28;20227;-45
2022/12/19 06:54:45;;;;;;;17.83;10.40;;;0.60;99.90;;;;;;5047232;28;20223;-47
2022/12/19 06:57:12;;;;;;;18.13;9.60;;;0.60;99.90;;;;;;5043110;28;20212;-44
2022/12/19 06:59:39;;;;;;;14.57;8.87;;;0.70;99.90;;;;;;5057903;28;20612;-47
2022/12/19 07:02:16;;;;;;;16.53;9.93;;;0.70;99.90;;;;;;5052353;28;20223;-46
2022/12/19 07:04:50;;;;;;;18.00;10.20;;;0.70;99.90;;;;;;5051688;28;20186;-45
2022/12/19 07:07:19;;;;;;;16.40;9.87;;;0.70;99.90;;;;;;5047884;28;20217;-45
2022/12/19 07:09:46;;;;;;;15.13;9.37;;;0.80;99.90;;;;;;5065593;28;20920;-48
2022/12/19 07:12:13;;;;;;;14.00;9.07;;;0.80;99.90;;;;;;5061481;28;20214;-47
2022/12/19 07:14:40;;;;;;;14.47;9.80;;;0.80;99.90;;;;;;5058352;28;20621;-46
2022/12/19 07:17:06;;;;;;;14.27;8.87;;;0.80;99.90;;;;;;5045358;28;20202;-45
2022/12/19 07:19:34;;;;;;;15.70;10.07;;;0.90;99.90;;;;;;5057072;28;20212;-44
2022/12/19 07:22:03;;;;;;;18.67;10.00;;;0.90;99.90;;;;;;5045195;28;20218;-47
2022/12/19 07:24:32;;;;;;;20.50;9.50;;;0.90;99.90;;;;;;5046545;28;20213;-45
2022/12/19 07:26:59;;;;;;;14.00;9.60;;;0.90;99.90;;;;;;5052179;28;20194;-44
2022/12/19 07:29:26;;;;;;;17.93;9.90;;;0.90;99.90;;;;;;5063705;28;20205;-44
2022/12/19 07:31:54;;;;;;;16.50;9.70;;;0.90;99.90;;;;;;5035000;28;20212;-44
2022/12/19 07:34:20;;;;;;;17.63;10.17;;;1.00;99.90;;;;;;5065949;28;20581;-46
2022/12/19 07:36:49;;;;;;;15.57;9.43;;;1.00;99.90;;;;;;5048881;28;20216;-44
2022/12/19 07:39:16;;;;;;;15.67;9.70;;;1.00;99.90;;;;;;5049017;28;20267;-45
2022/12/19 07:41:44;;;;;;;16.80;10.00;;;1.00;99.90;;;;;;5061205;28;20195;-48
2022/12/19 07:44:12;;;;;;;15.00;9.47;;;1.00;99.90;;;;;;5062803;28;20536;-44
2022/12/19 07:46:39;;;;;;;17.87;10.13;;;1.00;99.90;;;;;;5053356;28;20202;-44
2022/12/19 07:49:05;;;;;;;17.30;10.60;;;1.10;99.90;;;;;;5064455;28;20207;-45
2022/12/19 07:51:33;;;;;;;19.73;9.80;;;1.00;99.90;;;;;;5045501;28;20503;-44
2022/12/19 07:54:00;;;;;;;14.77;10.33;;;1.10;99.90;;;;;;5046400;28;20254;-44
2022/12/19 07:56:27;;;;;;;14.90;9.87;;;1.10;99.90;;;;;;5049747;28;20201;-45
2022/12/19 07:58:55;;;;;;;14.27;9.33;;;1.10;99.90;;;;;;5058413;28;20202;-44
2022/12/19 08:01:22;;;;;;;17.00;10.63;;;1.10;99.90;;;;;;5050706;28;20272;-44
2022/12/19 08:03:50;;;;;;;19.30;9.50;;;1.10;99.90;;;;;;5057131;28;20250;-44
2022/12/19 08:06:16;;;;;;;19.70;10.63;;;1.10;99.90;;;;;;5051805;28;20212;-46
2022/12/19 08:08:44;;;;;;;16.67;10.07;;;1.10;99.90;;;;;;5059568;28;20210;-44
2022/12/19 08:11:12;;;;;;;21.30;10.87;;;1.10;99.90;;;;;;5046565;28;20213;-43
2022/12/19 08:13:40;;;;;;;17.87;10.40;;;1.10;99.90;;;;;;5062243;28;20221;-44
2022/12/19 08:16:09;;;;;;;17.97;10.27;;;1.10;99.90;;;;;;5052172;28;20194;-46
2022/12/19 08:18:36;;;;;;;17.17;10.20;;;1.20;99.90;;;;;;5048619;28;20202;-44
2022/12/19 08:21:03;;;;;;;17.27;10.20;;;1.20;99.90;;;;;;5057410;28;20207;-45
2022/12/19 08:23:30;;;;;;;19.03;10.67;;;1.20;99.90;;;;;;5047264;28;20234;-44
2022/12/19 08:26:02;;;;;;;20.23;11.20;;;1.20;99.90;;;;;;5051108;28;20209;-46
2022/12/19 08:28:30;;;;;;;21.50;11.00;;;1.20;99.90;;;;;;5059671;28;20850;-45
2022/12/19 08:30:57;;;;;;;20.90;12.53;;;1.20;99.90;;;;;;5053772;28;20206;-45
2022/12/19 08:33:25;;;;;;;18.97;11.33;;;1.30;99.90;;;;;;5055057;28;20222;-45
2022/12/19 08:35:52;;;;;;;19.87;10.80;;;1.30;99.90;;;;;;5055825;28;20222;-46
2022/12/19 08:38:18;;;;;;;16.60;10.70;;;1.30;99.90;;;;;;5043938;28;21012;-46
2022/12/19 08:40:52;;;;;;;19.73;10.87;;;1.30;99.90;;;;;;5045479;28;20248;-47
2022/12/19 08:43:18;;;;;;;19.40;10.63;;;1.30;99.90;;;;;;5056404;28;20245;-46
2022/12/19 08:45:48;;;;;;;19.67;11.70;;;1.30;99.90;;;;;;5060681;28;20669;-44
2022/12/19 08:48:15;;;;;;;18.77;10.83;;;1.40;99.90;;;;;;5054791;28;20914;-46
2022/12/19 08:50:49;;;;;;;20.37;11.23;;;1.40;99.90;;;;;;5060005;28;20609;-44
2022/12/19 08:53:16;;;;;;;22.23;11.97;;;1.40;99.90;;;;;;5047984;28;20293;-44
2022/12/19 08:55:42;;;;;;;19.37;12.00;;;1.40;99.90;;;;;;5052688;28;20209;-46
2022/12/19 08:58:09;;;;;;;20.87;11.90;;;1.40;99.90;;;;;;5057392;28;20195;-45
2022/12/19 09:00:36;;;;;;;23.10;11.20;;;1.40;99.90;;;;;;5062371;28;20194;-44
2022/12/19 09:03:04;;;;;;;20.53;10.77;;;1.50;99.90;;;;;;5056044;28;20237;-44
2022/12/19 09:05:30;;;;;;;18.63;11.70;;;1.50;99.90;;;;;;5048874;28;20202;-44
2022/12/19 09:07:59;;;;;;;22.23;11.37;;;1.50;99.90;;;;;;5063528;28;20247;-47
2022/12/19 09:10:26;;;;;;;20.07;11.47;;;1.50;99.90;;;;;;5053594;28;20190;-43
2022/12/19 09:12:53;;;;;;;20.40;11.07;;;1.50;99.90;;;;;;5051709;28;20226;-45
2022/12/19 09:15:21;;;;;;;20.57;10.83;;;1.50;99.90;;;;;;5046741;28;20215;-43
2022/12/19 09:17:48;;;;;;;26.40;13.20;;;1.50;99.90;;;;;;5050037;28;20202;-46
2022/12/19 09:20:14;;;;;;;23.47;11.10;;;1.60;99.90;;;;;;5049358;28;20207;-44
2022/12/19 09:22:42;;;;;;;21.33;12.03;;;1.60;99.90;;;;;;5052817;28;20218;-48
2022/12/19 09:25:10;;;;;;;18.03;11.70;;;1.60;99.90;;;;;;5048149;28;20203;-45
2022/12/19 09:27:37;;;;;;;19.40;11.67;;;1.60;99.90;;;;;;5050364;28;20210;-48
2022/12/19 09:30:05;;;;;;;20.93;11.37;;;1.60;99.90;;;;;;5054598;28;20202;-44
2022/12/19 09:32:33;;;;;;;20.73;11.83;;;1.60;99.90;;;;;;5061006;28;20885;-44
2022/12/19 09:34:59;;;;;;;20.10;12.30;;;1.60;99.90;;;;;;5054055;28;20222;-46
2022/12/19 09:37:26;;;;;;;21.47;12.43;;;1.70;99.90;;;;;;5050040;28;20190;-43
2022/12/19 09:39:53;;;;;;;22.93;12.00;;;1.70;99.90;;;;;;5054991;28;20210;-45
2022/12/19 09:42:46;;;;;;;19.20;11.03;;;1.70;99.90;;;;;;5052072;28;20217;-47
2022/12/19 09:45:39;;;;;;;18.73;12.13;;;1.70;99.90;;;;;;5042771;28;20217;-42
2022/12/19 09:48:13;;;;;;;21.17;12.47;;;1.70;99.90;;;;;;5058109;28;20206;-44
2022/12/19 09:50:49;;;;;;;22.53;12.30;;;1.70;99.90;;;;;;5057182;28;20730;-46
2022/12/19 09:53:24;;;;;;;21.43;11.90;;;1.70;99.90;;;;;;5047083;28;20237;-45
2022/12/19 09:55:53;;;;;;;20.07;11.10;;;1.70;99.90;;;;;;5041486;28;20302;-50
2022/12/19 09:58:31;;;;;;;21.47;12.17;;;1.70;99.90;;;;;;5045172;28;20559;-44
2022/12/19 10:01:04;;;;;;;18.60;12.07;;;1.80;99.90;;;;;;5053761;28;20218;-45
2022/12/19 10:03:37;;;;;;;17.97;11.27;;;1.80;99.90;;;;;;5056557;28;20215;-41
2022/12/19 10:06:12;;;;;;;20.70;11.43;;;1.80;99.90;;;;;;5056669;28;20214;-47
2022/12/19 10:08:42;;;;;;;19.70;11.83;;;1.80;99.90;;;;;;5052647;28;20202;-47
2022/12/19 10:11:25;;;;;;;19.27;11.60;;;1.90;99.90;;;;;;5051057;28;20251;-42
2022/12/19 10:14:12;;;;;;;19.60;11.60;;;1.90;99.90;;;;;;5052811;28;20206;-50
2022/12/19 10:16:49;;;;;;;22.37;12.20;;;1.90;99.90;;;;;;5039409;28;20213;-43
2022/12/19 10:19:24;;;;;;;17.80;12.00;;;1.90;99.90;;;;;;5057492;28;20680;-49
2022/12/19 10:21:57;;;;;;;18.10;10.93;;;1.90;99.90;;;;;;5054818;28;20214;-43
2022/12/19 10:24:52;;;;;;;19.83;12.70;;;1.90;99.90;;;;;;5051565;28;20609;-43
2022/12/19 10:27:27;;;;;;;18.73;11.43;;;1.90;99.90;;;;;;5050800;28;20683;-43
2022/12/19 10:30:03;;;;;;;19.80;11.40;;;2.00;99.90;;;;;;5041839;28;20210;-46
2022/12/19 10:32:36;;;;;;;20.40;11.63;;;2.00;99.90;;;;;;5046643;28;20218;-44
2022/12/19 10:35:12;;;;;;;21.17;11.33;;;2.00;99.90;;;;;;5053475;28;20608;-48
2022/12/19 10:37:45;;;;;;;21.50;12.03;;;2.00;99.90;;;;;;5052806;28;20778;-45
2022/12/19 10:40:20;;;;;;;20.13;12.13;;;2.10;99.90;;;;;;5059756;28;20212;-48
2022/12/19 10:42:53;;;;;;;19.77;11.00;;;2.10;99.90;;;;;;5048381;28;20307;-46
2022/12/19 10:45:24;;;;;;;19.10;11.33;;;2.10;99.90;;;;;;5058513;28;20193;-43
2022/12/19 10:47:56;;;;;;;18.10;10.93;;;2.10;99.90;;;;;;5053326;28;20273;-45
2022/12/19 10:50:25;;;;;;;23.43;12.40;;;2.20;99.90;;;;;;5052950;28;20822;-42
2022/12/19 10:52:54;;;;;;;18.53;11.80;;;2.20;99.90;;;;;;5054271;28;20225;-47
2022/12/19 10:55:42;;;;;;;19.17;12.33;;;2.20;99.90;;;;;;5054077;28;20593;-41
2022/12/19 10:58:19;;;;;;;21.30;11.37;;;2.30;99.90;;;;;;5048821;28;20248;-48
2022/12/19 11:00:59;;;;;;;21.00;11.80;;;2.30;99.90;;;;;;5059500;28;20281;-45
2022/12/19 11:03:26;;;;;;;24.03;12.30;;;2.30;99.90;;;;;;5044397;28;20226;-42
2022/12/19 11:05:54;;;;;;;19.73;12.43;;;2.40;99.90;;;;;;5059389;28;20285;-50
2022/12/19 11:08:25;;;;;;;23.53;13.13;;;2.40;99.90;;;;;;5041129;28;20202;-48
2022/12/19 11:10:55;;;;;;;23.37;12.87;;;2.40;99.90;;;;;;5045161;28;20207;-43
2022/12/19 11:13:24;;;;;;;22.63;13.20;;;2.40;99.90;;;;;;5045999;28;21573;-50
2022/12/19 11:15:55;;;;;;;28.27;13.73;;;2.40;99.90;;;;;;5043772;28;20232;-47
2022/12/19 11:18:23;;;;;;;22.90;12.97;;;2.50;99.90;;;;;;5048404;28;20207;-48
2022/12/19 11:21:00;;;;;;;20.30;12.17;;;2.50;99.90;;;;;;5046999;28;20308;-47
2022/12/19 11:23:29;;;;;;;22.93;12.97;;;2.50;99.90;;;;;;5054708;28;20770;-43
2022/12/19 11:26:00;;;;;;;24.60;13.63;;;2.50;99.90;;;;;;5054105;28;20208;-46
2022/12/19 11:28:32;;;;;;;22.33;13.77;;;2.50;99.90;;;;;;5061027;28;20202;-46
2022/12/19 11:31:04;;;;;;;21.27;13.10;;;2.60;99.90;;;;;;5054342;28;20205;-48
2022/12/19 11:33:31;;;;;;;25.03;13.53;;;2.60;99.90;;;;;;5050462;28;20689;-48
2022/12/19 11:36:00;;;;;;;20.50;12.23;;;2.60;99.90;;;;;;5062608;28;20279;-47
2022/12/19 11:38:40;;;;;;;24.93;14.53;;;2.60;99.90;;;;;;5058504;28;20209;-48
2022/12/19 11:41:14;;;;;;;22.30;13.17;;;2.60;99.90;;;;;;5056375;28;20264;-47
2022/12/19 11:43:49;;;;;;;20.03;12.00;;;2.70;99.90;;;;;;5050038;28;20626;-41
2022/12/19 11:46:29;;;;;;;19.87;12.37;;;2.70;99.90;;;;;;5061873;28;20198;-47
2022/12/19 11:49:01;;;;;;;19.90;12.27;;;2.70;99.90;;;;;;5045063;28;21758;-48
2022/12/19 11:51:34;;;;;;;23.47;12.83;;;2.70;99.90;;;;;;5056639;28;20226;-47
2022/12/19 11:54:07;;;;;;;19.97;12.30;;;2.80;99.90;;;;;;5058114;28;20207;-48
2022/12/19 11:56:34;;;;;;;21.00;12.33;;;2.80;99.90;;;;;;5057390;28;20634;-43
2022/12/19 11:59:10;;;;;;;19.20;11.80;;;2.80;99.90;;;;;;5056798;28;20191;-47
2022/12/19 12:02:02;;;;;;;18.27;11.90;;;2.80;99.90;;;;;;5049286;28;20225;-43
2022/12/19 12:04:45;;;;;;;20.00;12.03;;;2.90;99.90;;;;;;5049363;28;20203;-45
2022/12/19 12:07:13;;;;;;;20.87;12.57;;;2.90;99.90;;;;;;5057618;28;20213;-51
2022/12/19 12:09:45;;;;;;;19.10;11.50;;;2.90;99.90;;;;;;5054178;28;20195;-41
2022/12/19 12:12:21;;;;;;;21.70;12.27;;;2.90;99.90;;;;;;5062749;28;20234;-44
2022/12/19 12:15:02;;;;;;;21.00;12.80;;;2.90;99.90;;;;;;5043714;28;20218;-50
2022/12/19 12:17:47;;;;;;;23.10;13.17;;;3.00;99.90;;;;;;5062669;28;20672;-45
2022/12/19 12:20:23;;;;;;;19.50;11.90;;;3.00;99.90;;;;;;5044239;28;20212;-45
2022/12/19 12:23:02;;;;;;;22.07;13.07;;;3.10;99.90;;;;;;5059158;28;20871;-50
2022/12/19 12:25:45;;;;;;;22.73;12.63;;;3.10;99.90;;;;;;5059015;28;20217;-46
2022/12/19 12:28:43;;;;;;;24.23;13.07;;;3.10;99.90;;;;;;5064492;28;20207;-47
2022/12/19 12:31:22;;;;;;;20.20;13.07;;;3.20;99.90;;;;;;5049276;28;20536;-51
2022/12/19 12:34:03;;;;;;;25.20;12.63;;;3.20;99.90;;;;;;5054746;28;21061;-53
2022/12/19 12:36:38;;;;;;;23.53;13.40;;;3.20;99.90;;;;;;5044597;28;20735;-41
2022/12/19 12:39:15;;;;;;;20.30;11.63;;;3.20;99.90;;;;;;5053863;28;20261;-46
2022/12/19 12:42:03;;;;;;;18.53;12.17;;;3.30;99.90;;;;;;5052512;28;20249;-46
2022/12/19 12:44:34;;;;;;;22.47;13.03;;;3.30;99.90;;;;;;5054500;28;20630;-41
2022/12/19 12:47:08;;;;;;;19.43;12.67;;;3.30;99.90;;;;;;5046422;28;20198;-49
2022/12/19 12:49:39;;;;;;;19.43;12.40;;;3.30;99.90;;;;;;5055567;28;20190;-45
2022/12/19 12:52:10;;;;;;;25.13;13.87;;;3.40;99.90;;;;;;5046103;28;20304;-44
2022/12/19 12:54:41;;;;;;;25.63;13.70;;;3.40;99.90;;;;;;5058557;28;20203;-44